Time;durP1;ratioP1;P1;durP2;ratioP2;P2;SDS_P1;SDS_P2;PMS_P1;PMS_P2;Temp;Humidity;BMP_temperature;BMP_pressure;BME280_temperature;BME280_humidity;BME280_pressure;Samples;Min_cycle;Max_cycle;Signal;HPM_P1;HPM_P2
2020/12/04 08:43:12;;;;;;;19.80;10.77;;;;;;;7.74;60.25;100573.44;1759604;79;26670;-67
2020/12/04 08:45:46;;;;;;;20.45;11.12;;;;;;;7.85;60.73;100578.67;1715491;82;21175;-66
2020/12/04 08:48:19;;;;;;;19.48;13.00;;;;;;;8.17;61.65;100578.58;1712502;82;21567;-65
2020/12/04 08:50:50;;;;;;;20.82;12.68;;;;;;;8.34;63.10;100580.23;1725269;82;21203;-66
2020/12/04 08:53:19;;;;;;;19.70;12.25;;;;;;;8.49;63.35;100574.13;1725702;81;21206;-65
2020/12/04 08:55:51;;;;;;;18.20;12.47;;;;;;;8.64;63.14;100578.08;1718969;82;21172;-66
2020/12/04 08:58:20;;;;;;;18.92;13.03;;;;;;;8.77;62.72;100572.05;1726024;82;21191;-68
2020/12/04 09:00:49;;;;;;;20.23;12.20;;;;;;;8.90;62.15;100574.92;1712858;82;21441;-67
2020/12/04 09:03:17;;;;;;;17.90;11.95;;;;;;;9.13;61.44;100584.80;1715182;82;21143;-68
2020/12/04 09:05:45;;;;;;;20.27;12.70;;;;;;;9.28;60.76;100586.55;1712785;82;21180;-68
2020/12/04 09:08:13;;;;;;;18.37;12.40;;;;;;;9.37;60.21;100591.03;1730916;82;21193;-68
2020/12/04 09:10:40;;;;;;;22.77;13.10;;;;;;;9.45;59.74;100588.52;1717083;82;21183;-67
2020/12/04 09:13:08;;;;;;;19.20;12.70;;;;;;;9.51;59.31;100583.97;1718308;82;21259;-68
2020/12/04 09:15:37;;;;;;;18.60;12.63;;;;;;;9.57;58.89;100582.07;1724167;82;21184;-69
2020/12/04 09:18:05;;;;;;;19.98;12.40;;;;;;;9.64;58.49;100584.52;1665690;85;21194;-68
2020/12/04 09:20:34;;;;;;;19.32;12.85;;;;;;;9.70;58.13;100577.81;1665523;85;21226;-64
2020/12/04 09:23:02;;;;;;;20.08;12.88;;;;;;;9.75;57.80;100574.22;1669287;85;21157;-65
2020/12/04 09:25:31;;;;;;;19.32;13.20;;;;;;;9.80;57.49;100587.08;1657225;85;22294;-66
2020/12/04 09:28:00;;;;;;;18.73;13.08;;;;;;;9.84;57.22;100576.52;1680404;84;21206;-68
2020/12/04 09:30:28;;;;;;;18.67;12.80;;;;;;;9.87;56.91;100576.25;1683810;84;21206;-65
2020/12/04 09:32:55;;;;;;;19.57;12.50;;;;;;;9.91;56.71;100578.09;1679096;84;21203;-67
2020/12/04 09:35:22;;;;;;;19.25;13.08;;;;;;;9.94;56.53;100578.66;1675553;85;21381;-65
2020/12/04 09:37:50;;;;;;;18.25;12.07;;;;;;;9.93;56.25;100566.84;1658309;85;21312;-66
2020/12/04 09:40:18;;;;;;;18.35;12.30;;;;;;;10.00;56.12;100573.27;1669635;83;21674;-67
2020/12/04 09:42:46;;;;;;;22.20;14.35;;;;;;;10.03;55.97;100575.64;1670982;84;21177;-67
2020/12/04 09:45:16;;;;;;;19.60;13.00;;;;;;;10.03;55.75;100567.68;1670890;83;21183;-66
2020/12/04 09:47:43;;;;;;;20.08;13.50;;;;;;;10.07;55.57;100583.66;1675588;83;21581;-67
2020/12/04 09:50:12;;;;;;;18.77;12.90;;;;;;;10.09;55.38;100560.95;1684173;83;22139;-69
2020/12/04 09:52:41;;;;;;;19.57;12.70;;;;;;;10.10;55.28;100562.61;1671916;83;21238;-68
2020/12/04 09:55:08;;;;;;;18.37;12.37;;;;;;;10.11;55.12;100555.84;1677583;83;21206;-70
2020/12/04 09:57:36;;;;;;;16.65;12.18;;;;;;;10.11;55.03;100562.48;1689940;82;21220;-70
2020/12/04 10:00:07;;;;;;;19.25;12.80;;;;;;;10.14;54.93;100563.99;1683829;82;21249;-70
2020/12/04 10:02:35;;;;;;;17.57;12.50;;;;;;;10.16;54.83;100577.95;1708131;84;21366;-65
2020/12/04 10:05:03;;;;;;;22.00;13.13;;;;;;;10.18;54.72;100574.70;1711614;82;21177;-67
2020/12/04 10:07:31;;;;;;;17.77;12.82;;;;;;;10.18;54.63;100575.53;1708423;83;21171;-70
2020/12/04 10:09:59;;;;;;;18.05;12.10;;;;;;;10.20;54.55;100577.55;1709167;82;21623;-69
2020/12/04 10:12:26;;;;;;;16.42;12.05;;;;;;;10.21;54.39;100572.56;1702603;83;21198;-71
2020/12/04 10:14:53;;;;;;;17.65;12.45;;;;;;;10.22;54.34;100571.59;1693241;83;21345;-70
2020/12/04 10:17:20;;;;;;;18.62;12.65;;;;;;;10.24;54.25;100580.75;1676090;83;21218;-69
2020/12/04 10:19:48;;;;;;;17.90;10.88;;;;;;;10.20;54.13;100584.19;1678298;83;21542;-68
2020/12/04 10:22:15;;;;;;;18.25;11.90;;;;;;;10.26;54.08;100589.87;1662374;84;21230;-69
2020/12/04 10:24:43;;;;;;;17.00;11.97;;;;;;;10.26;54.00;100585.42;1646338;84;21199;-69
2020/12/04 10:27:10;;;;;;;16.87;10.93;;;;;;;10.27;53.98;100584.42;1699011;82;21838;-68
2020/12/04 10:29:38;;;;;;;17.82;12.07;;;;;;;10.26;53.91;100573.47;1710345;82;21167;-68
2020/12/04 10:32:05;;;;;;;17.52;11.38;;;;;;;10.26;53.86;100573.47;1695084;82;21143;-69
2020/12/04 10:34:33;;;;;;;18.15;12.33;;;;;;;10.28;53.79;100570.17;1693608;84;21195;-68
2020/12/04 10:37:00;;;;;;;17.52;12.30;;;;;;;10.28;53.74;100570.17;1701756;84;21156;-68
2020/12/04 10:39:28;;;;;;;16.87;11.50;;;;;;;10.29;53.68;100564.37;1707186;82;21451;-68
2020/12/04 10:41:55;;;;;;;16.35;11.38;;;;;;;10.29;53.67;100569.17;1683807;84;21162;-68
2020/12/04 10:44:22;;;;;;;17.27;12.23;;;;;;;10.30;53.61;100566.91;1668720;84;21201;-67
2020/12/04 10:46:50;;;;;;;18.55;11.70;;;;;;;10.30;53.58;100566.91;1652406;84;21149;-69
2020/12/04 10:49:17;;;;;;;16.30;11.75;;;;;;;10.30;53.51;100564.73;1650478;84;21150;-69
2020/12/04 10:51:57;;;;;;;18.50;12.30;;;;;;;10.28;53.50;100563.54;1658102;84;22261;-72
2020/12/04 10:54:24;;;;;;;20.92;13.53;;;;;;;10.29;53.46;100565.20;1704380;84;21211;-69
2020/12/04 10:56:55;;;;;;;18.35;11.90;;;;;;;10.29;53.45;100566.52;1714689;82;21140;-68
2020/12/04 10:59:23;;;;;;;17.95;12.55;;;;;;;10.29;53.38;100565.69;1717872;82;21170;-68
2020/12/04 11:01:58;;;;;;;15.95;11.33;;;;;;;10.29;53.34;100559.88;1697394;83;21202;-69
2020/12/04 11:07:08;;;;;;;15.93;11.00;;;;;;;10.29;53.39;100566.52;1686537;83;21171;-70
2020/12/04 11:09:38;;;;;;;17.67;11.93;;;;;;;10.29;53.32;100559.05;1667564;84;21189;-70
2020/12/04 11:12:06;;;;;;;16.20;11.90;;;;;;;10.28;53.31;100556.91;1666746;84;21201;-70
2020/12/04 11:14:33;;;;;;;17.42;12.30;;;;;;;10.29;53.30;100567.02;1670755;84;21171;-71
2020/12/04 11:17:00;;;;;;;17.48;12.73;;;;;;;10.29;53.25;100566.52;1707244;82;21623;-71
2020/12/04 11:19:28;;;;;;;17.25;12.30;;;;;;;10.29;53.25;100565.20;1709915;82;21103;-70
2020/12/04 11:21:55;;;;;;;19.73;13.32;;;;;;;10.29;53.23;100563.04;1685089;83;21249;-66
2020/12/04 11:24:22;;;;;;;16.57;12.58;;;;;;;10.29;53.24;100566.52;1674405;83;21226;-71
2020/12/04 11:26:52;;;;;;;18.80;13.03;;;;;;;10.29;53.22;100574.48;1666348;84;21218;-70
2020/12/04 11:29:19;;;;;;;17.80;13.18;;;;;;;10.29;53.17;100567.85;1652332;84;21236;-67
2020/12/04 11:31:46;;;;;;;19.15;12.43;;;;;;;10.27;53.18;100561.85;1675434;83;21241;-71
2020/12/04 11:34:13;;;;;;;22.48;13.90;;;;;;;10.28;53.15;100556.91;1666756;84;21082;-66
2020/12/04 11:36:40;;;;;;;17.32;12.50;;;;;;;10.29;53.16;100558.55;1663604;84;21174;-68
2020/12/04 11:41:48;;;;;;;21.93;16.73;;;;;;;10.33;53.12;100552.00;1738924;79;28053;-68
2020/12/04 11:44:15;;;;;;;19.45;13.78;;;;;;;10.53;52.82;100553.27;1725872;81;21151;-68
2020/12/04 11:46:42;;;;;;;17.12;11.75;;;;;;;10.76;52.20;100555.84;1744592;81;21197;-66
2020/12/04 11:49:09;;;;;;;18.62;13.03;;;;;;;10.69;52.28;100553.44;1773890;80;21177;-67
2020/12/04 11:51:37;;;;;;;19.17;13.25;;;;;;;10.63;52.34;100572.13;1728793;81;21139;-69
2020/12/04 11:54:04;;;;;;;18.80;12.55;;;;;;;10.60;52.37;100570.26;1795289;77;21173;-66
2020/12/04 11:56:32;;;;;;;22.32;15.45;;;;;;;10.55;52.42;100569.39;1735108;81;21190;-68
2020/12/04 11:58:59;;;;;;;19.90;13.25;;;;;;;10.51;52.44;100560.05;1734313;81;22075;-68
2020/12/04 12:01:26;;;;;;;20.32;14.07;;;;;;;10.50;52.48;100565.50;1751849;81;21142;-66
2020/12/04 12:03:54;;;;;;;19.95;13.93;;;;;;;10.48;52.49;100571.45;1771196;79;21142;-65
2020/12/04 12:06:21;;;;;;;19.12;13.25;;;;;;;10.46;52.55;100566.78;1738646;80;21198;-66
2020/12/04 12:08:48;;;;;;;18.25;13.45;;;;;;;10.44;52.56;100569.58;1765075;80;22174;-66
2020/12/04 12:11:16;;;;;;;18.62;13.40;;;;;;;10.41;52.60;100576.03;1754367;80;21376;-66
2020/12/04 12:13:43;;;;;;;23.07;14.75;;;;;;;10.39;52.61;100574.02;1780487;80;21166;-65
2020/12/04 12:16:11;;;;;;;19.35;13.05;;;;;;;10.38;52.63;100580.30;1773081;80;21182;-66
2020/12/04 12:18:38;;;;;;;18.87;14.43;;;;;;;10.37;52.65;100574.66;1728894;81;21127;-67
2020/12/04 12:21:05;;;;;;;20.45;14.13;;;;;;;10.35;52.67;100571.31;1746145;81;21206;-67
2020/12/04 12:23:35;;;;;;;22.17;14.40;;;;;;;10.34;52.69;100573.60;1755222;80;22162;-67
2020/12/04 12:26:03;;;;;;;22.32;14.63;;;;;;;10.33;52.67;100569.26;1731220;81;21173;-67
2020/12/04 12:28:30;;;;;;;20.48;13.83;;;;;;;10.33;52.69;100561.29;1790605;78;21170;-67
2020/12/04 12:30:59;;;;;;;18.30;13.03;;;;;;;10.33;52.70;100561.29;1799080;77;21133;-65
2020/12/04 12:33:27;;;;;;;20.20;14.78;;;;;;;10.32;52.71;100559.63;1780230;77;21142;-67
2020/12/04 12:35:54;;;;;;;19.90;13.65;;;;;;;10.31;52.75;100557.95;1734758;81;21369;-67
2020/12/04 12:38:21;;;;;;;20.80;13.90;;;;;;;10.31;52.75;100562.44;1739114;80;21195;-65
2020/12/04 12:40:49;;;;;;;20.12;13.48;;;;;;;10.29;52.72;100557.23;1780494;77;21669;-65
2020/12/04 12:43:17;;;;;;;20.17;13.80;;;;;;;10.30;52.77;100569.57;1774420;78;21206;-66
2020/12/04 12:45:44;;;;;;;20.15;13.83;;;;;;;10.29;52.77;100570.51;1775929;80;21142;-68
2020/12/04 12:48:11;;;;;;;19.37;13.62;;;;;;;10.28;52.74;100562.21;1775579;80;21264;-68
2020/12/04 12:50:38;;;;;;;20.92;14.60;;;;;;;10.28;52.76;100568.85;1780188;78;21170;-67
2020/12/04 12:53:06;;;;;;;19.50;13.88;;;;;;;10.29;52.80;100569.67;1786876;78;21107;-68
2020/12/04 12:55:34;;;;;;;19.77;14.15;;;;;;;10.28;52.80;100572.01;1779927;80;21121;-69
2020/12/04 12:58:01;;;;;;;21.97;14.30;;;;;;;10.28;52.80;100565.37;1774092;80;21154;-67
2020/12/04 13:00:29;;;;;;;19.45;13.50;;;;;;;10.27;52.77;100566.34;1779706;80;21261;-68
2020/12/04 13:02:56;;;;;;;20.23;14.73;;;;;;;10.26;52.81;100567.30;1784347;80;21187;-67
2020/12/04 13:05:35;;;;;;;22.35;14.98;;;;;;;10.26;52.80;100579.25;1788896;78;21120;-66
2020/12/04 13:08:09;;;;;;;19.10;13.62;;;;;;;10.24;52.80;100572.78;1790797;78;21723;-64
2020/12/04 13:10:37;;;;;;;17.75;13.32;;;;;;;10.17;52.85;100565.87;1774797;80;21146;-67
2020/12/04 13:13:04;;;;;;;19.32;12.95;;;;;;;10.22;52.86;100575.58;1786488;78;21184;-67
2020/12/04 13:15:32;;;;;;;20.60;13.95;;;;;;;10.22;52.86;100583.55;1784042;78;21210;-66
2020/12/04 13:17:59;;;;;;;18.55;13.93;;;;;;;10.22;52.86;100586.70;1780178;80;21190;-67
2020/12/04 13:20:26;;;;;;;20.30;14.40;;;;;;;10.21;52.88;100592.48;1787723;78;21194;-68
2020/12/04 13:23:15;;;;;;;18.37;13.05;;;;;;;10.20;52.87;100591.32;1785160;80;21326;-68
2020/12/04 13:25:42;;;;;;;19.95;14.00;;;;;;;10.19;52.87;100590.46;1784183;80;21432;-67
2020/12/04 13:28:10;;;;;;;21.15;14.28;;;;;;;10.17;52.88;100591.09;1782285;80;21162;-67
2020/12/04 13:30:37;;;;;;;19.75;14.85;;;;;;;10.16;52.88;100589.44;1782782;78;21142;-65
2020/12/04 13:33:05;;;;;;;23.27;14.93;;;;;;;10.16;52.92;100595.22;1796174;78;21172;-67
2020/12/04 13:35:34;;;;;;;17.60;13.38;;;;;;;10.16;52.89;100593.89;1777130;78;21177;-66
2020/12/04 13:38:01;;;;;;;21.00;14.83;;;;;;;10.16;52.93;100589.91;1780726;78;21381;-69
2020/12/04 13:40:29;;;;;;;18.80;13.35;;;;;;;10.15;52.87;100597.05;1773784;80;21170;-69
2020/12/04 13:42:56;;;;;;;19.73;14.78;;;;;;;10.15;52.88;100592.23;1722290;83;21179;-69
2020/12/04 13:45:25;;;;;;;19.50;14.15;;;;;;;10.14;52.91;100597.19;1746118;80;21620;-66
2020/12/04 13:47:53;;;;;;;22.25;14.95;;;;;;;10.14;52.88;100595.39;1739768;81;21396;-66
2020/12/04 13:50:20;;;;;;;17.40;13.32;;;;;;;10.14;52.88;100598.52;1727928;81;21458;-67
2020/12/04 13:52:49;;;;;;;18.48;13.43;;;;;;;10.14;52.87;100601.17;1717759;81;21167;-67
2020/12/04 13:55:17;;;;;;;22.35;14.60;;;;;;;10.14;52.90;100614.44;1761438;80;21143;-68
2020/12/04 13:57:44;;;;;;;20.15;14.58;;;;;;;10.13;52.89;100613.61;1773828;80;21821;-68
2020/12/04 14:00:11;;;;;;;22.67;14.53;;;;;;;10.14;52.90;100614.44;1790032;79;21166;-68
2020/12/04 14:02:38;;;;;;;20.02;13.95;;;;;;;10.13;52.97;100595.53;1768894;80;22140;-66
2020/12/04 14:05:07;;;;;;;20.80;15.03;;;;;;;10.16;54.34;100599.20;1774901;79;21183;-67
2020/12/04 14:07:34;;;;;;;23.40;15.32;;;;;;;10.22;55.42;100603.46;1773899;79;21381;-68
2020/12/04 14:10:02;;;;;;;22.82;16.20;;;;;;;10.29;57.59;100597.56;1766920;79;21113;-68
2020/12/04 14:12:29;;;;;;;22.22;15.72;;;;;;;10.32;58.45;100603.95;1777825;79;21481;-69
2020/12/04 14:14:56;;;;;;;24.12;15.03;;;;;;;10.34;58.63;100612.62;1765829;80;21371;-66
2020/12/04 14:17:23;;;;;;;22.27;15.13;;;;;;;10.34;58.62;100610.78;1760211;79;21160;-69
2020/12/04 14:19:51;;;;;;;25.23;17.02;;;;;;;10.35;58.49;100608.49;1769535;79;21227;-68
2020/12/04 14:22:18;;;;;;;25.40;16.62;;;;;;;10.35;58.30;100600.52;1773925;80;21154;-68
2020/12/04 14:24:45;;;;;;;24.95;16.40;;;;;;;10.34;58.09;100604.14;1769670;79;21123;-69
2020/12/04 14:27:13;;;;;;;25.30;16.65;;;;;;;10.33;57.85;100618.39;1778169;80;22431;-68
2020/12/04 14:29:40;;;;;;;24.67;16.20;;;;;;;10.31;57.66;100624.34;1763576;80;21226;-69
2020/12/04 14:32:08;;;;;;;24.18;16.65;;;;;;;10.30;57.44;100624.02;1767957;79;21144;-70
2020/12/04 14:34:35;;;;;;;28.27;16.93;;;;;;;10.26;57.30;100617.29;1768108;80;21083;-69
2020/12/04 14:37:02;;;;;;;27.15;18.17;;;;;;;10.26;57.12;100608.47;1763393;79;21195;-69
2020/12/04 14:39:30;;;;;;;29.92;18.27;;;;;;;10.22;56.96;100607.45;1766565;80;21730;-70
2020/12/04 14:41:58;;;;;;;27.73;18.87;;;;;;;10.19;56.78;100619.67;1771244;78;21143;-69
2020/12/04 14:44:25;;;;;;;24.43;16.60;;;;;;;10.19;56.63;100619.67;1779977;80;21154;-71
2020/12/04 14:46:53;;;;;;;22.95;16.45;;;;;;;10.18;56.45;100607.89;1781443;78;21261;-74
2020/12/04 14:49:21;;;;;;;24.90;17.20;;;;;;;10.16;56.33;100613.34;1771570;78;21219;-71
2020/12/04 14:51:48;;;;;;;27.42;18.80;;;;;;;10.15;56.22;100606.34;1773897;78;22168;-69
2020/12/04 14:54:16;;;;;;;24.35;18.25;;;;;;;10.13;56.12;100609.63;1772461;80;21190;-69
2020/12/04 14:56:47;;;;;;;26.85;18.80;;;;;;;10.12;55.99;100620.39;1788525;78;21102;-69
2020/12/04 14:59:15;;;;;;;24.10;16.12;;;;;;;10.10;55.89;100620.55;1781514;79;21150;-67
2020/12/04 15:01:49;;;;;;;26.93;17.77;;;;;;;10.10;55.82;100617.04;1791722;79;21125;-67
2020/12/04 15:04:16;;;;;;;26.23;16.77;;;;;;;10.08;55.74;100620.33;1781151;79;22301;-67
2020/12/04 15:06:51;;;;;;;24.25;17.07;;;;;;;10.07;55.65;100628.80;1774363;78;21198;-69
2020/12/04 15:09:19;;;;;;;26.97;18.07;;;;;;;10.04;55.55;100617.98;1776330;78;21574;-67
2020/12/04 15:11:47;;;;;;;30.08;19.50;;;;;;;10.05;55.47;100612.17;1778474;78;21179;-67
2020/12/04 15:14:15;;;;;;;26.05;18.45;;;;;;;9.96;55.37;100611.70;1770781;80;21130;-69
2020/12/04 15:16:43;;;;;;;27.25;18.80;;;;;;;10.03;55.33;100624.25;1777377;80;21375;-68
2020/12/04 15:19:10;;;;;;;22.87;16.97;;;;;;;10.02;55.27;100625.25;1787558;80;21178;-69
2020/12/04 15:21:37;;;;;;;29.40;18.70;;;;;;;10.01;55.21;100634.18;1780092;78;21167;-68
2020/12/04 15:24:05;;;;;;;26.85;17.48;;;;;;;10.01;55.16;100617.42;1776259;78;21612;-68
2020/12/04 15:26:32;;;;;;;24.52;17.12;;;;;;;10.00;55.09;100638.30;1763033;80;21634;-66
2020/12/04 15:29:00;;;;;;;25.00;17.82;;;;;;;10.00;55.03;100636.48;1778392;79;21375;-69
2020/12/04 15:31:27;;;;;;;28.30;17.95;;;;;;;9.99;54.96;100632.66;1776669;78;21178;-68
2020/12/04 15:33:55;;;;;;;28.77;16.50;;;;;;;9.91;54.95;100620.56;1771037;80;21584;-68
2020/12/04 15:36:22;;;;;;;27.05;18.60;;;;;;;9.97;54.89;100647.39;1781638;80;21181;-68
2020/12/04 15:38:56;;;;;;;26.27;17.15;;;;;;;9.98;54.86;100632.30;1780721;80;21228;-69
2020/12/04 15:41:25;;;;;;;22.02;16.60;;;;;;;9.97;54.80;100625.33;1770768;80;21337;-65
2020/12/04 15:43:53;;;;;;;27.27;17.75;;;;;;;9.97;54.76;100628.81;1780529;78;21186;-65
2020/12/04 15:46:21;;;;;;;23.92;16.85;;;;;;;9.96;54.70;100622.31;1785887;80;21166;-66
2020/12/04 15:48:49;;;;;;;26.00;17.82;;;;;;;9.95;54.69;100631.27;1787509;80;21083;-65
2020/12/04 15:51:16;;;;;;;23.47;16.75;;;;;;;9.95;54.68;100637.91;1775914;78;21686;-65
2020/12/04 15:53:44;;;;;;;26.85;18.50;;;;;;;9.94;54.63;100645.02;1769274;80;21353;-71
2020/12/04 15:56:11;;;;;;;27.37;17.85;;;;;;;9.95;54.58;100645.88;1783533;80;21179;-70
2020/12/04 15:58:38;;;;;;;27.07;18.35;;;;;;;9.93;54.55;100647.80;1773469;80;21625;-66
2020/12/04 16:01:06;;;;;;;25.60;17.85;;;;;;;9.92;54.51;100641.66;1717805;82;21171;-67
2020/12/04 16:03:33;;;;;;;25.10;17.60;;;;;;;9.93;54.48;100646.47;1752169;80;21130;-68
2020/12/04 16:06:00;;;;;;;25.43;17.23;;;;;;;9.91;54.48;100654.61;1725120;83;21190;-66
2020/12/04 16:08:28;;;;;;;27.37;19.57;;;;;;;9.91;54.42;100651.09;1779495;80;21657;-69
2020/12/04 16:10:55;;;;;;;22.90;16.25;;;;;;;9.91;54.40;100646.64;1786288;80;21107;-67
2020/12/04 16:13:22;;;;;;;23.45;17.20;;;;;;;9.89;54.36;100649.93;1783112;78;21130;-70
2020/12/04 16:15:50;;;;;;;24.90;16.60;;;;;;;9.90;54.35;100654.24;1787983;80;21206;-69
2020/12/04 16:18:17;;;;;;;26.85;17.85;;;;;;;9.89;54.35;100645.95;1773517;80;21376;-69
2020/12/04 16:20:44;;;;;;;26.15;17.32;;;;;;;9.90;54.29;100650.26;1772724;78;21157;-66
2020/12/04 16:23:11;;;;;;;27.15;17.95;;;;;;;9.90;54.28;100649.44;1772655;80;21177;-67
2020/12/04 16:25:39;;;;;;;25.32;16.90;;;;;;;9.89;54.26;100661.88;1708663;83;21145;-69
2020/12/04 16:28:06;;;;;;;23.27;16.67;;;;;;;9.89;54.22;100659.22;1744005;81;21633;-66
2020/12/04 16:30:35;;;;;;;25.50;17.67;;;;;;;9.88;54.21;100650.06;1742520;81;21401;-65
2020/12/04 16:33:02;;;;;;;25.97;16.97;;;;;;;9.88;54.17;100642.10;1721749;83;21609;-65
2020/12/04 16:35:31;;;;;;;26.65;17.95;;;;;;;9.87;54.18;100647.91;1777106;78;21570;-67
2020/12/04 16:37:59;;;;;;;24.02;16.60;;;;;;;9.87;54.16;100649.70;1783906;80;21224;-68
2020/12/04 16:40:27;;;;;;;25.65;17.23;;;;;;;9.87;54.12;100645.25;1770693;78;21138;-65
2020/12/04 16:42:55;;;;;;;23.27;16.55;;;;;;;9.86;54.08;100640.91;1783642;80;21384;-65
2020/12/04 16:45:22;;;;;;;23.45;16.40;;;;;;;9.86;54.11;100636.10;1784264;80;21158;-65
2020/12/04 16:47:50;;;;;;;23.83;16.60;;;;;;;9.84;54.08;100647.68;1787081;80;21643;-66
2020/12/04 16:50:18;;;;;;;24.00;17.07;;;;;;;9.82;54.06;100639.02;1785749;80;21144;-64
2020/12/04 16:52:45;;;;;;;23.02;17.07;;;;;;;9.82;54.04;100629.73;1713442;83;21646;-65
2020/12/04 16:55:12;;;;;;;23.07;16.85;;;;;;;9.82;54.08;100644.33;1741303;81;21200;-65
2020/12/04 16:57:39;;;;;;;24.40;16.30;;;;;;;9.82;54.04;100650.14;1737502;80;21202;-67
2020/12/04 17:00:07;;;;;;;22.27;16.12;;;;;;;9.82;54.03;100652.30;1741143;80;21139;-67
2020/12/04 17:02:34;;;;;;;25.55;18.12;;;;;;;9.81;54.05;100659.92;1740567;80;21235;-67
2020/12/04 17:05:01;;;;;;;23.22;16.50;;;;;;;9.81;54.00;100657.27;1705572;82;21175;-67
2020/12/04 17:07:32;;;;;;;24.47;17.60;;;;;;;9.76;53.99;100650.70;1710374;82;21374;-66
2020/12/04 17:09:59;;;;;;;22.00;16.48;;;;;;;9.81;53.99;100659.06;1681321;83;21167;-65
2020/12/04 17:12:27;;;;;;;22.60;16.50;;;;;;;9.80;54.03;100663.54;1780928;80;21122;-66
2020/12/04 17:14:56;;;;;;;22.82;16.35;;;;;;;9.81;53.96;100659.06;1771865;80;21122;-66
2020/12/04 17:17:23;;;;;;;23.62;17.02;;;;;;;9.81;53.93;100671.00;1763208;80;21602;-67
2020/12/04 17:19:51;;;;;;;24.47;17.70;;;;;;;9.80;53.90;100665.36;1726493;81;21271;-68
2020/12/04 17:22:19;;;;;;;23.42;16.17;;;;;;;9.80;53.89;100670.17;1726480;81;21417;-66
2020/12/04 17:24:47;;;;;;;23.80;16.70;;;;;;;9.79;53.85;100676.48;1718626;82;21139;-69
2020/12/04 17:27:16;;;;;;;24.07;17.02;;;;;;;9.79;53.84;100684.91;1723574;82;21175;-72
2020/12/04 17:29:45;;;;;;;21.82;15.72;;;;;;;9.78;53.86;100677.44;1731432;82;21158;-68
2020/12/04 17:32:16;;;;;;;22.82;16.07;;;;;;;9.78;53.87;100681.92;1730757;82;21281;-66
2020/12/04 17:34:43;;;;;;;20.77;15.70;;;;;;;9.77;53.85;100692.17;1731763;81;21154;-67
2020/12/04 17:37:10;;;;;;;23.42;16.45;;;;;;;9.76;53.85;100689.19;1713209;82;21223;-66
2020/12/04 17:39:38;;;;;;;22.82;15.75;;;;;;;9.76;53.84;100686.53;1713902;81;21137;-64
2020/12/04 17:42:05;;;;;;;27.45;17.40;;;;;;;9.74;53.82;100685.33;1729335;82;21189;-66
2020/12/04 17:44:32;;;;;;;22.70;16.80;;;;;;;9.74;53.83;100689.31;1768587;80;21217;-66
2020/12/04 17:46:59;;;;;;;22.77;16.73;;;;;;;9.75;53.81;100698.94;1771121;80;21163;-67
2020/12/04 17:49:27;;;;;;;21.40;16.15;;;;;;;9.74;53.78;100702.58;1709437;83;21150;-67
2020/12/04 17:51:54;;;;;;;22.35;16.87;;;;;;;9.75;53.77;100700.76;1770048;80;21190;-71
2020/12/04 17:54:24;;;;;;;21.95;16.37;;;;;;;9.74;53.78;100705.73;1760539;80;21124;-66
2020/12/04 17:56:51;;;;;;;21.68;16.00;;;;;;;9.75;53.74;100708.72;1772432;79;21430;-66
2020/12/04 17:59:19;;;;;;;22.60;16.07;;;;;;;9.74;53.75;100714.52;1758881;80;21178;-68
2020/12/04 18:01:48;;;;;;;23.60;17.32;;;;;;;9.74;53.73;100709.71;1774483;80;21433;-68
2020/12/04 18:04:16;;;;;;;23.77;16.87;;;;;;;9.74;53.70;100716.34;1764974;80;21164;-68
2020/12/04 18:06:48;;;;;;;22.32;16.17;;;;;;;9.74;53.67;100715.02;1778850;79;21191;-69
2020/12/04 18:09:15;;;;;;;23.38;16.73;;;;;;;9.74;53.70;100712.37;1762615;80;21313;-67
2020/12/04 18:11:43;;;;;;;24.02;16.50;;;;;;;9.73;53.65;100717.31;1765868;80;21660;-68
2020/12/04 18:14:10;;;;;;;24.12;16.67;;;;;;;9.73;53.67;100730.58;1770230;80;21138;-65
2020/12/04 18:16:38;;;;;;;21.70;16.70;;;;;;;9.72;53.65;100728.92;1759847;80;21562;-65
2020/12/04 18:19:05;;;;;;;23.05;15.98;;;;;;;9.72;53.62;100726.27;1767153;80;21155;-67
2020/12/04 18:21:32;;;;;;;22.15;16.62;;;;;;;9.72;53.66;100721.78;1772277;80;23517;-65
2020/12/04 18:23:59;;;;;;;22.67;17.25;;;;;;;9.72;53.60;100718.30;1777012;79;21580;-67
2020/12/04 18:26:27;;;;;;;22.90;16.87;;;;;;;9.71;53.61;100723.25;1762176;80;21170;-66
2020/12/04 18:28:54;;;;;;;23.52;15.98;;;;;;;9.71;53.59;100718.77;1770239;80;21128;-66
2020/12/04 18:31:22;;;;;;;21.48;15.70;;;;;;;9.70;53.58;100719.77;1772966;80;21180;-68
2020/12/04 18:33:49;;;;;;;21.02;16.48;;;;;;;9.70;53.58;100706.50;1760432;80;21612;-67
2020/12/04 18:36:16;;;;;;;22.50;16.42;;;;;;;9.70;53.57;100710.97;1759998;80;21539;-68
2020/12/04 18:38:44;;;;;;;23.77;17.07;;;;;;;9.70;53.55;100721.09;1774301;80;21087;-66
2020/12/04 18:41:11;;;;;;;23.30;16.52;;;;;;;9.70;53.54;100723.74;1772221;80;21633;-65
2020/12/04 18:43:38;;;;;;;23.50;16.73;;;;;;;9.70;53.54;100734.36;1779996;80;21251;-68
2020/12/04 18:46:07;;;;;;;23.45;16.85;;;;;;;9.70;53.53;100722.41;1719650;83;21391;-68
2020/12/04 18:48:35;;;;;;;21.62;16.42;;;;;;;9.71;53.54;100722.75;1736134;81;21215;-69
2020/12/04 18:51:02;;;;;;;22.20;16.37;;;;;;;9.72;53.50;100726.27;1724677;82;21239;-69
2020/12/04 18:53:29;;;;;;;22.35;16.90;;;;;;;9.71;53.49;100720.59;1723201;83;21158;-71
2020/12/04 18:55:57;;;;;;;21.57;15.55;;;;;;;9.71;53.45;100725.90;1715195;83;21608;-65
2020/12/04 18:58:26;;;;;;;24.23;17.67;;;;;;;9.70;53.46;100720.26;1716493;82;21369;-68
2020/12/04 19:00:53;;;;;;;21.70;16.12;;;;;;;9.70;53.46;100745.47;1720725;81;21218;-70
2020/12/04 19:03:20;;;;;;;23.18;15.83;;;;;;;9.70;53.47;100746.80;1725783;81;22201;-71
2020/12/04 19:05:48;;;;;;;22.48;15.63;;;;;;;9.70;53.45;100749.45;1733590;82;21210;-70
2020/12/04 19:08:17;;;;;;;21.60;15.65;;;;;;;9.69;53.43;100727.86;1708271;82;21190;-69
2020/12/04 19:10:44;;;;;;;20.88;15.50;;;;;;;9.68;53.45;100748.72;1732406;82;21535;-70
2020/12/04 19:13:12;;;;;;;23.25;17.00;;;;;;;9.69;53.48;100758.37;1715693;82;21158;-68
2020/12/04 19:15:40;;;;;;;25.60;17.70;;;;;;;9.68;53.43;100748.25;1733598;82;21142;-68
2020/12/04 19:18:07;;;;;;;20.40;15.55;;;;;;;9.68;53.41;100752.23;1730907;81;21206;-68
2020/12/04 19:20:35;;;;;;;21.70;16.10;;;;;;;9.68;53.38;100752.70;1720974;81;21178;-70
2020/12/04 19:23:03;;;;;;;21.65;16.77;;;;;;;9.66;53.40;100747.55;1728603;82;21384;-70
2020/12/04 19:25:30;;;;;;;20.37;16.05;;;;;;;9.65;53.42;100749.84;1726984;81;21381;-67
2020/12/04 19:27:58;;;;;;;20.75;16.67;;;;;;;9.66;53.42;100754.19;1717148;81;21218;-69
2020/12/04 19:30:25;;;;;;;22.22;15.65;;;;;;;9.65;53.37;100753.32;1726345;82;21463;-68
2020/12/04 19:32:53;;;;;;;21.60;16.37;;;;;;;9.67;53.37;100764.30;1718056;82;21199;-70
2020/12/04 19:35:20;;;;;;;21.07;16.27;;;;;;;9.65;53.36;100757.80;1708489;82;21300;-66
2020/12/04 19:37:47;;;;;;;21.07;16.35;;;;;;;9.65;53.35;100752.49;1719506;82;21775;-66
2020/12/04 19:40:16;;;;;;;21.27;15.88;;;;;;;9.65;53.36;100765.27;1734401;82;21217;-69
2020/12/04 19:42:45;;;;;;;21.93;16.30;;;;;;;9.65;53.36;100753.32;1726995;82;21205;-66
2020/12/04 19:45:12;;;;;;;23.47;15.98;;;;;;;9.65;53.33;100746.69;1728201;81;21727;-68
2020/12/04 19:47:43;;;;;;;22.65;15.68;;;;;;;9.65;53.32;100758.63;1732192;81;21752;-67
2020/12/04 19:50:12;;;;;;;21.80;16.65;;;;;;;9.64;53.29;100755.64;1725365;81;21166;-69
2020/12/04 19:52:39;;;;;;;22.55;16.82;;;;;;;9.65;53.29;100772.39;1720348;82;21190;-68
2020/12/04 19:55:07;;;;;;;23.32;16.20;;;;;;;9.65;53.30;100777.70;1735193;82;21166;-67
2020/12/04 19:57:34;;;;;;;22.20;16.95;;;;;;;9.64;53.26;100772.89;1714787;82;21180;-68
2020/12/04 20:00:06;;;;;;;24.25;17.52;;;;;;;9.65;53.25;100779.02;1727513;82;22322;-71
2020/12/04 20:02:38;;;;;;;21.68;16.45;;;;;;;9.64;53.27;100778.20;1724414;81;21235;-69
2020/12/04 20:05:04;;;;;;;21.10;15.93;;;;;;;9.64;53.28;100776.87;1732974;81;21229;-69